createdAt,value
2023-11-13T07:44:50.655Z,98034.31
2023-11-13T07:45:54.148Z,98043.81
2023-11-13T07:46:57.300Z,98049.13
2023-11-13T07:47:59.513Z,98046.88
2023-11-13T07:49:02.437Z,98038.47
2023-11-13T07:50:04.793Z,98042.91
2023-11-13T07:51:08.603Z,98041.31
2023-11-13T07:52:12.424Z,98040.44
2023-11-13T07:53:15.305Z,98049.13
2023-11-13T07:54:17.899Z,98046.63
2023-11-13T07:55:20.879Z,98039.91
2023-11-13T07:56:23.930Z,98039.91
2023-11-13T07:57:26.323Z,98041.78
2023-11-13T07:58:30.024Z,98030.75
2023-11-13T07:59:31.936Z,98025.78
2023-11-13T08:00:37.780Z,98013.38
2023-11-13T08:01:39.798Z,98016.41
2023-11-13T08:02:44.228Z,98014.75
2023-11-13T08:03:46.292Z,98006.38
2023-11-13T08:04:49.262Z,98007.25
2023-11-13T08:05:52.084Z,98006.25
2023-11-13T08:06:54.980Z,97996.00
2023-11-13T08:07:56.940Z,98000.94
2023-11-13T08:08:59.828Z,98004.41
2023-11-13T08:10:02.378Z,98001.13
2023-11-13T08:11:07.364Z,97991.75
2023-11-13T08:12:10.007Z,97997.78
2023-11-13T08:13:12.877Z,97987.31
2023-11-13T08:14:15.357Z,97993.53
2023-11-13T08:15:18.473Z,97993.53
2023-11-13T08:16:23.244Z,97996.16
2023-11-13T08:17:26.780Z,97986.13
2023-11-13T08:18:29.342Z,97991.25
2023-11-13T08:19:32.381Z,97985.22
2023-11-13T08:20:34.339Z,97994.81
2023-11-13T08:21:37.230Z,97996.56
2023-11-13T08:22:40.015Z,98013.47
2023-11-13T08:23:42.866Z,98022.81
2023-11-13T08:24:44.858Z,98023.13
2023-11-13T08:25:51.257Z,98018.25
2023-11-13T08:26:53.959Z,98007.22
2023-11-13T08:27:56.857Z,97988.44
2023-11-13T08:28:58.843Z,97993.56
2023-11-13T08:30:01.710Z,97983.50
2023-11-13T08:31:06.713Z,97976.75
2023-11-13T08:32:12.737Z,97972.44
2023-11-13T08:33:14.772Z,97964.56
2023-11-13T08:34:18.001Z,97966.31
2023-11-13T08:35:20.416Z,97966.41
2023-11-13T08:36:24.356Z,97966.50
2023-11-13T08:37:27.070Z,97961.97
2023-11-13T08:38:29.982Z,97954.19
2023-11-13T08:39:32.465Z,97950.91
2023-11-13T08:40:36.859Z,97949.31
2023-11-13T08:41:41.255Z,97953.56
2023-11-13T08:42:43.179Z,97941.78
2023-11-13T08:43:46.819Z,97937.63
2023-11-13T08:44:49.797Z,97939.50
2023-11-13T08:46:00.352Z,97940.59
2023-11-13T08:47:06.492Z,97936.22
2023-11-13T08:48:11.519Z,97928.53
2023-11-13T08:49:15.492Z,97932.94
2023-11-13T08:50:17.880Z,97933.06
2023-11-13T08:51:26.000Z,97933.84
2023-11-13T08:52:27.915Z,97933.06
2023-11-13T08:53:32.804Z,97929.50
2023-11-13T08:54:34.901Z,97923.66
2023-11-13T08:55:38.606Z,97923.59
2023-11-13T08:56:42.433Z,97927.75
2023-11-13T08:57:46.228Z,97927.53
2023-11-13T08:58:48.656Z,97925.06
2023-11-13T08:59:52.434Z,97927.75
2023-11-13T09:00:54.740Z,97925.94
2023-11-13T09:01:57.829Z,97929.50
2023-11-13T09:03:00.089Z,97938.19
2023-11-13T09:04:08.068Z,97940.16
2023-11-13T09:05:14.244Z,97948.63
2023-11-13T09:06:18.446Z,97945.00
2023-11-13T09:07:20.417Z,97946.00
2023-11-13T09:08:24.846Z,97944.41
2023-11-13T09:09:27.623Z,97941.91
2023-11-13T09:10:31.211Z,97942.91
2023-11-13T09:11:33.207Z,97940.31
2023-11-13T09:12:36.393Z,97930.25
2023-11-13T09:13:39.672Z,97932.00
2023-11-13T09:14:43.833Z,97944.03
2023-11-13T09:15:46.689Z,97924.19
2023-11-13T09:16:48.617Z,97929.28
2023-11-13T09:17:54.615Z,97928.47
2023-11-13T09:18:59.159Z,97932.00
2023-11-13T09:20:03.799Z,97919.97
2023-11-13T09:21:06.100Z,97925.13
2023-11-13T09:22:10.821Z,97943.72
2023-11-13T09:23:12.808Z,97943.50
2023-11-13T09:24:15.716Z,97943.72
2023-11-13T09:25:18.528Z,97936.06
2023-11-13T09:26:21.477Z,97934.47
2023-11-13T09:27:23.391Z,97935.19
2023-11-13T09:28:26.500Z,97933.22
2023-11-13T09:29:28.406Z,97932.00
2023-11-13T09:30:31.886Z,97935.34
2023-11-13T09:31:33.947Z,97929.16
2023-11-13T09:32:37.679Z,97932.88
2023-11-13T09:33:41.085Z,97935.44
2023-11-13T09:34:43.387Z,97938.19
2023-11-13T09:35:49.423Z,97939.78
2023-11-13T09:36:51.350Z,97944.13
2023-11-13T09:37:54.552Z,97929.88
2023-11-13T09:38:57.431Z,97916.22
2023-11-13T09:39:59.666Z,97922.53
2023-11-13T09:41:04.455Z,97915.72
2023-11-13T09:42:15.143Z,97913.22
2023-11-13T09:43:24.795Z,97906.69
2023-11-13T09:44:29.516Z,97903.47
2023-11-13T09:45:31.951Z,97899.41
2023-11-13T09:46:36.769Z,97891.81
2023-11-13T09:47:43.412Z,97882.94
2023-11-13T09:48:52.207Z,97892.59
2023-11-13T09:50:00.702Z,97893.75
2023-11-13T09:51:11.267Z,97889.84
2023-11-13T09:52:19.796Z,97890.72
2023-11-13T09:53:26.877Z,97886.47
2023-11-13T09:54:30.799Z,97889.31
2023-11-13T09:55:35.665Z,97889.69
2023-11-13T09:56:39.413Z,97888.78
2023-11-13T09:57:42.757Z,97881.88
2023-11-13T09:58:46.510Z,97870.09
2023-11-13T09:59:52.693Z,97880.81
2023-11-13T10:00:55.741Z,97872.31
2023-11-13T10:01:59.494Z,97870.00
2023-11-13T10:03:02.571Z,97876.03
2023-11-13T10:04:06.606Z,97870.25
2023-11-13T10:05:13.462Z,97872.19
2023-11-13T10:06:17.965Z,97867.31
2023-11-13T10:07:23.101Z,97867.50
2023-11-13T10:08:25.619Z,97868.63
2023-11-13T10:09:27.932Z,97861.97
2023-11-13T10:10:31.972Z,97857.00
2023-11-13T10:11:34.005Z,97861.44
2023-11-13T10:12:38.844Z,97857.16
2023-11-13T10:13:40.826Z,97861.69
2023-11-13T10:15:02.976Z,97853.78
2023-11-13T10:16:18.165Z,97841.72
2023-11-13T10:17:23.925Z,97848.63
2023-11-13T10:18:28.966Z,97842.09
2023-11-13T10:19:35.905Z,97843.16
2023-11-13T10:20:42.880Z,97842.28
2023-11-13T10:21:47.262Z,97835.38
2023-11-13T10:22:59.828Z,97833.59
2023-11-13T10:24:23.270Z,97836.16
2023-11-13T10:25:41.718Z,97827.72
2023-11-13T10:26:49.602Z,97828.69
2023-11-13T10:27:57.638Z,97825.59
2023-11-13T10:29:00.518Z,97810.31
2023-11-13T10:30:04.879Z,97813.19
2023-11-13T10:31:13.921Z,97809.81
2023-11-13T10:32:30.795Z,97812.41
2023-11-13T10:33:33.816Z,97810.94
2023-11-13T10:34:43.114Z,97807.75
2023-11-13T10:35:49.643Z,97806.94
2023-11-13T10:37:07.753Z,97812.31
2023-11-13T10:38:15.481Z,97808.06
2023-11-13T10:39:36.273Z,97808.38
2023-11-13T10:40:45.093Z,97795.75
2023-11-13T10:41:47.272Z,97796.88
2023-11-13T10:42:51.854Z,97791.09
2023-11-13T10:43:53.840Z,97810.06
2023-11-13T10:44:58.486Z,97805.06
2023-11-13T10:46:01.822Z,97805.25
2023-11-13T10:47:20.902Z,97803.66
2023-11-13T10:48:30.902Z,97804.19
2023-11-13T10:49:34.703Z,97799.88
2023-11-13T10:50:39.151Z,97791.16
2023-11-13T10:51:43.736Z,97783.75
2023-11-13T10:52:48.854Z,97787.47
2023-11-13T10:53:52.190Z,97791.00
2023-11-13T10:54:57.253Z,97781.41
2023-11-13T10:55:59.470Z,97778.91
2023-11-13T10:57:05.016Z,97773.69
2023-11-13T11:02:27.190Z,97758.88
2023-11-13T11:03:33.632Z,97758.22
2023-11-13T11:04:43.925Z,97747.84
2023-11-13T11:05:49.653Z,97751.94
2023-11-13T11:06:54.024Z,97743.47
2023-11-13T11:07:57.800Z,97747.19
2023-11-13T11:09:04.732Z,97744.75
2023-11-13T11:10:08.842Z,97735.25
2023-11-13T11:11:13.706Z,97736.22
2023-11-13T11:12:16.271Z,97731.47
2023-11-13T11:13:20.651Z,97721.19
2023-11-13T11:14:30.694Z,97722.16
2023-11-13T11:15:53.869Z,97723.94
2023-11-13T11:17:04.009Z,97719.44
2023-11-13T11:18:15.999Z,97724.81
2023-11-13T11:19:26.539Z,97724.22
2023-11-13T11:20:45.165Z,97721.59
2023-11-13T11:21:59.324Z,97729.56
2023-11-13T11:23:05.881Z,97720.13
2023-11-13T11:24:13.089Z,97700.25
2023-11-13T11:25:36.490Z,97707.97
2023-11-13T11:26:50.848Z,97693.63
2023-11-13T11:27:53.715Z,97685.97
2023-11-13T11:28:56.248Z,97689.66
2023-11-13T11:29:59.204Z,97687.94
2023-11-13T11:31:05.710Z,97680.50
2023-11-13T11:32:20.246Z,97673.75
2023-11-13T11:33:22.357Z,97684.31
2023-11-13T11:34:28.071Z,97672.38
2023-11-13T11:35:38.533Z,97671.75
2023-11-13T11:36:45.525Z,97657.91
2023-11-13T11:38:19.126Z,97655.63
2023-11-13T11:39:23.394Z,97660.16
2023-11-13T11:40:34.204Z,97655.97
2023-11-13T11:41:41.843Z,97649.28
2023-11-13T11:42:45.544Z,97643.28
2023-11-13T11:43:50.157Z,97640.09
2023-11-13T11:45:01.200Z,97640.09
2023-11-13T11:46:08.399Z,97635.00
2023-11-13T11:47:24.834Z,97635.13
2023-11-13T11:48:28.440Z,97638.00
2023-11-13T11:49:33.159Z,97637.25
2023-11-13T11:50:38.650Z,97633.72
2023-11-13T11:51:41.810Z,97629.59
2023-11-13T11:52:52.899Z,97624.44
2023-11-13T11:53:58.819Z,97628.09
2023-11-13T11:55:02.288Z,97624.69
2023-11-13T11:56:05.555Z,97628.97
2023-11-13T11:57:08.764Z,97626.34
2023-11-13T11:58:15.421Z,97620.44
2023-11-13T11:59:17.398Z,97616.94
2023-11-13T12:00:22.288Z,97616.28
2023-11-13T12:01:25.707Z,97614.53
2023-11-13T12:02:31.992Z,97616.28
2023-11-13T12:03:34.071Z,97610.44
2023-11-13T12:04:38.279Z,97609.59
2023-11-13T12:05:40.944Z,97614.09
2023-11-13T12:06:42.838Z,97591.16
2023-11-13T12:07:45.803Z,97597.38
2023-11-13T12:08:48.062Z,97594.69
2023-11-13T12:09:52.613Z,97596.41
2023-11-13T12:10:54.484Z,97592.13
2023-11-13T12:12:00.591Z,97593.91
2023-11-13T12:13:04.383Z,97602.63
2023-11-13T12:14:13.043Z,97605.31
2023-11-13T12:15:16.174Z,97599.28
2023-11-13T12:16:19.846Z,97604.47
2023-11-13T12:17:23.290Z,97588.28
2023-11-13T12:18:28.014Z,97595.06
2023-11-13T12:19:29.923Z,97593.44
2023-11-13T12:20:32.999Z,97584.09
2023-11-13T12:21:36.161Z,97600.47
2023-11-13T12:22:39.458Z,97595.09
2023-11-13T12:23:41.387Z,97599.47
2023-11-13T12:24:44.493Z,97603.59
2023-11-13T12:25:47.978Z,97588.00
2023-11-13T12:26:51.226Z,97588.28
2023-11-13T12:27:55.518Z,97591.78
2023-11-13T12:28:58.482Z,97586.59
2023-11-13T12:30:01.139Z,97576.06
2023-11-13T12:31:16.840Z,97588.13
2023-11-13T12:32:19.132Z,97586.50
2023-11-13T12:33:22.197Z,97588.38
2023-11-13T12:34:24.943Z,97575.59
2023-11-13T12:35:27.911Z,97587.56
2023-11-13T12:36:32.067Z,97584.97
2023-11-13T12:37:35.088Z,97585.81
2023-11-13T12:38:37.024Z,97591.09
2023-11-13T12:39:42.505Z,97592.03
2023-11-13T12:40:44.923Z,97572.03
2023-11-13T12:41:49.882Z,97573.78
2023-11-13T12:42:52.081Z,97578.94
2023-11-13T12:43:54.116Z,97576.16
2023-11-13T12:45:07.502Z,97578.00
2023-11-13T12:46:13.007Z,97574.53
2023-11-13T12:47:18.136Z,97581.44
2023-11-13T12:48:23.464Z,97576.28
2023-11-13T12:49:26.759Z,97560.75
2023-11-13T12:50:28.753Z,97581.44
2023-11-13T12:51:30.973Z,97573.69
2023-11-13T12:52:35.496Z,97573.50
2023-11-13T12:53:40.015Z,97586.50
2023-11-13T12:54:44.817Z,97584.75
2023-11-13T12:55:47.870Z,97576.06
2023-11-13T12:56:52.287Z,97576.84
2023-11-13T12:57:55.258Z,97580.19
2023-11-13T12:58:58.342Z,97584.59
2023-11-13T13:00:00.272Z,97579.44
2023-11-13T13:01:06.206Z,97575.09
2023-11-13T13:02:08.694Z,97581.06
2023-11-13T13:03:12.692Z,97575.91
2023-11-13T13:04:16.707Z,97582.84
2023-11-13T13:05:29.612Z,97574.16
2023-11-13T13:06:38.077Z,97572.53
2023-11-13T13:07:40.991Z,97563.94
2023-11-13T13:08:43.176Z,97575.97
2023-11-13T13:09:46.683Z,97559.53
2023-11-13T13:10:52.207Z,97575.91
2023-11-13T13:11:58.753Z,97558.66
2023-11-13T13:13:01.587Z,97568.97
2023-11-13T13:14:07.757Z,97558.78
2023-11-13T13:15:10.320Z,97570.72
2023-11-13T13:16:14.782Z,97562.06
2023-11-13T13:17:17.214Z,97566.28
2023-11-13T13:18:19.232Z,97551.75
2023-11-13T13:19:22.265Z,97548.22
2023-11-13T13:20:31.020Z,97552.44
2023-11-13T13:21:34.260Z,97546.44
2023-11-13T13:22:37.434Z,97546.44
2023-11-13T13:23:42.064Z,97545.44
2023-11-13T13:24:43.934Z,97553.22
2023-11-13T13:28:25.901Z,97540.28
2023-11-13T13:29:27.981Z,97546.31
2023-11-13T13:30:34.524Z,97539.56
2023-11-13T13:31:38.125Z,97544.69
2023-11-13T13:32:40.096Z,97536.13
2023-11-13T13:33:43.422Z,97532.66
2023-11-13T13:34:46.191Z,97544.69
2023-11-13T13:35:51.096Z,97536.94
2023-11-13T13:36:53.058Z,97522.25
2023-11-13T13:37:55.184Z,97528.34
2023-11-13T13:38:58.247Z,97530.00
2023-11-13T13:40:00.611Z,97523.19
2023-11-13T13:41:05.290Z,97506.78
2023-11-13T13:42:07.993Z,97510.31
2023-11-13T13:43:11.557Z,97508.56
2023-11-13T13:44:15.012Z,97518.94
2023-11-13T13:45:19.760Z,97516.41
2023-11-13T13:46:21.912Z,97520.78
2023-11-13T13:47:25.183Z,97509.56
2023-11-13T13:48:27.193Z,97511.06
2023-11-13T13:49:33.046Z,97511.94
2023-11-13T13:50:35.060Z,97510.31
2023-11-13T13:51:38.666Z,97504.34
2023-11-13T13:52:44.110Z,97508.59
2023-11-13T13:58:08.272Z,97515.34
2023-11-13T13:59:12.889Z,97507.63
2023-11-13T14:00:33.611Z,97512.03
2023-11-13T14:01:39.436Z,97506.03
2023-11-13T14:02:42.445Z,97527.56
2023-11-13T14:03:45.353Z,97522.47
2023-11-13T14:04:50.380Z,97519.88
2023-11-13T14:05:53.380Z,97523.38
2023-11-13T14:06:57.784Z,97513.84
2023-11-13T14:08:01.031Z,97515.63
2023-11-13T14:09:08.473Z,97513.09
2023-11-13T14:10:13.868Z,97512.09
2023-11-13T14:11:19.209Z,97519.00
2023-11-13T14:12:23.448Z,97512.22
2023-11-13T14:13:29.166Z,97511.25
2023-11-13T14:14:35.735Z,97505.31
2023-11-13T14:15:50.138Z,97518.31
2023-11-13T14:17:04.998Z,97509.69
2023-11-13T14:18:12.978Z,97512.31
2023-11-13T14:19:16.731Z,97511.56
2023-11-13T14:20:19.971Z,97502.94
2023-11-13T14:21:24.813Z,97511.53
2023-11-13T14:22:28.127Z,97503.78
2023-11-13T14:23:33.195Z,97496.16
2023-11-13T14:24:37.722Z,97498.72
2023-11-13T14:25:42.617Z,97499.59
2023-11-13T14:26:45.804Z,97504.00
2023-11-13T14:27:53.099Z,97491.94
2023-11-13T14:28:56.827Z,97509.00
2023-11-13T14:30:00.774Z,97502.16
2023-11-13T14:31:07.164Z,97493.50
2023-11-13T14:32:14.110Z,97493.56
2023-11-13T14:33:19.916Z,97501.31
2023-11-13T14:34:24.791Z,97498.63
2023-11-13T14:35:28.490Z,97494.25
2023-11-13T14:36:32.551Z,97494.25
2023-11-13T14:37:35.713Z,97508.06
2023-11-13T14:38:41.085Z,97503.78
2023-11-13T14:39:44.306Z,97503.63
2023-11-13T14:40:48.659Z,97499.41
2023-11-13T14:41:51.920Z,97505.53
2023-11-13T14:42:56.413Z,97493.56
2023-11-13T14:43:59.623Z,97503.91
2023-11-13T14:45:04.214Z,97488.41
2023-11-13T14:46:08.664Z,97483.38
2023-11-13T14:47:13.713Z,97488.53
2023-11-13T14:48:17.745Z,97479.09
2023-11-13T14:49:22.271Z,97457.56
2023-11-13T14:50:26.577Z,97448.91
2023-11-13T14:51:34.211Z,97431.75
2023-11-13T14:52:40.574Z,97417.09
2023-11-13T14:53:44.693Z,97391.97
2023-11-13T14:54:48.010Z,97406.59
2023-11-13T14:55:52.402Z,97414.25
2023-11-13T14:56:55.608Z,97406.50
2023-11-13T14:57:59.790Z,97408.22
2023-11-13T14:59:07.129Z,97407.47
2023-11-13T15:00:13.083Z,97410.97
2023-11-13T15:01:17.757Z,97405.81
2023-11-13T15:02:21.989Z,97419.75
2023-11-13T15:03:25.485Z,97417.16
2023-11-13T15:04:29.687Z,97411.09
2023-11-13T15:05:32.873Z,97411.16
2023-11-13T15:06:38.475Z,97412.97
2023-11-13T15:07:42.227Z,97405.13
2023-11-13T15:08:46.967Z,97404.44
2023-11-13T15:09:50.198Z,97401.72
2023-11-13T15:10:57.037Z,97403.53
2023-11-13T15:11:58.917Z,97407.97
2023-11-13T15:13:02.367Z,97405.50
2023-11-13T15:14:04.132Z,97402.97
2023-11-13T15:15:06.502Z,97403.00
2023-11-13T15:16:10.424Z,97411.69
2023-11-13T15:17:13.636Z,97402.06
2023-11-13T15:18:16.319Z,97402.13
2023-11-13T15:19:18.141Z,97397.84
2023-11-13T15:20:21.772Z,97404.78
2023-11-13T15:21:25.126Z,97396.97
2023-11-13T15:22:26.820Z,97401.38
2023-11-13T15:23:39.171Z,97397.84
2023-11-13T15:24:47.971Z,97408.28
2023-11-13T15:25:51.550Z,97391.03
2023-11-13T15:26:53.306Z,97390.22
2023-11-13T15:27:57.097Z,97385.00
2023-11-13T15:29:01.380Z,97381.50
2023-11-13T15:30:05.589Z,97375.56
2023-11-13T15:31:09.907Z,97378.06
2023-11-13T15:32:13.935Z,97367.75
2023-11-13T15:33:17.762Z,97357.38
2023-11-13T15:34:26.908Z,97354.78
2023-11-13T15:35:31.634Z,97357.38
2023-11-13T15:36:34.253Z,97343.63
2023-11-13T15:37:36.390Z,97339.41
2023-11-13T15:38:38.074Z,97346.31
2023-11-13T15:39:40.860Z,97336.84
2023-11-13T15:40:43.240Z,97336.84
2023-11-13T15:41:45.909Z,97352.44
2023-11-13T15:42:47.542Z,97348.88
2023-11-13T15:43:50.271Z,97356.66
2023-11-13T15:44:52.077Z,97345.50
2023-11-13T15:45:54.740Z,97351.47
2023-11-13T15:46:56.546Z,97361.81
2023-11-13T15:48:00.744Z,97360.13
2023-11-13T15:49:04.044Z,97370.50
2023-11-13T15:50:10.616Z,97352.44
2023-11-13T15:51:15.155Z,97366.25
2023-11-13T15:52:17.781Z,97363.59
2023-11-13T15:53:19.439Z,97360.06
2023-11-13T15:54:22.163Z,97372.97
2023-11-13T15:55:24.102Z,97370.41
2023-11-13T15:56:26.784Z,97361.72
2023-11-13T15:57:28.417Z,97338.53
2023-11-13T15:58:31.079Z,97351.38
2023-11-13T15:59:32.722Z,97359.19
2023-11-13T16:00:36.343Z,97341.16
2023-11-13T16:01:38.061Z,97348.00
2023-11-13T16:02:41.430Z,97350.56
2023-11-13T16:03:45.459Z,97354.03
2023-11-13T16:04:49.432Z,97351.38
2023-11-13T16:05:51.155Z,97354.03
2023-11-13T16:06:53.961Z,97357.41
2023-11-13T16:07:55.637Z,97354.03
2023-11-13T16:08:58.472Z,97336.84
2023-11-13T16:10:00.072Z,97352.38
2023-11-13T16:11:02.680Z,97347.22
2023-11-13T16:12:05.057Z,97354.91
2023-11-13T16:13:07.670Z,97346.31
2023-11-13T16:14:09.329Z,97355.78
2023-11-13T16:15:12.128Z,97366.09
2023-11-13T16:16:14.364Z,97363.59
2023-11-13T16:17:17.178Z,97363.59
2023-11-13T16:18:19.258Z,97358.31
2023-11-13T16:19:22.321Z,97367.81
2023-11-13T16:20:25.602Z,97366.97
2023-11-13T16:21:28.025Z,97370.41
2023-11-13T16:22:32.765Z,97372.13
2023-11-13T16:23:36.144Z,97365.13
2023-11-13T16:24:38.833Z,97370.41
2023-11-13T16:25:40.562Z,97370.41
2023-11-13T16:26:44.561Z,97385.88
2023-11-13T16:27:46.174Z,97380.72
2023-11-13T16:28:48.770Z,97371.22
2023-11-13T16:29:52.896Z,97361.72
2023-11-13T16:30:55.557Z,97363.41
2023-11-13T16:32:00.490Z,97384.00
2023-11-13T16:33:05.382Z,97353.84
2023-11-13T16:34:07.385Z,97359.09
2023-11-13T16:35:13.616Z,97366.75
2023-11-13T16:36:15.307Z,97364.97
2023-11-13T16:37:20.524Z,97361.72
2023-11-13T16:38:24.648Z,97362.47
2023-11-13T16:39:27.265Z,97366.84
2023-11-13T16:40:28.987Z,97384.00
2023-11-13T16:41:31.942Z,97366.75
2023-11-13T16:42:33.997Z,97366.88
2023-11-13T16:43:36.680Z,97358.25
2023-11-13T16:44:38.404Z,97363.34
2023-11-13T16:45:41.668Z,97354.78
2023-11-13T16:46:43.551Z,97359.97
2023-11-13T16:47:46.343Z,97348.00
2023-11-13T16:48:48.014Z,97342.75
2023-11-13T16:49:50.644Z,97353.03
2023-11-13T16:50:55.943Z,97349.63
2023-11-13T16:51:58.658Z,97342.84
2023-11-13T16:53:03.255Z,97332.44
2023-11-13T16:54:11.348Z,97346.22
2023-11-13T16:55:13.072Z,97343.75
2023-11-13T16:56:15.875Z,97346.31
2023-11-13T16:57:17.511Z,97344.56
2023-11-13T16:58:20.177Z,97336.84
2023-11-13T16:59:22.053Z,97340.25
2023-11-13T17:00:24.814Z,97337.66
2023-11-13T17:01:27.216Z,97348.00
2023-11-13T17:02:29.942Z,97345.34
2023-11-13T17:03:31.657Z,97336.75
2023-11-13T17:04:34.586Z,97348.00
2023-11-13T17:05:38.875Z,97342.00
2023-11-13T17:06:44.396Z,97351.47
2023-11-13T17:07:46.473Z,97343.72
2023-11-13T17:08:49.533Z,97347.16
2023-11-13T17:09:51.595Z,97356.66
2023-11-13T17:10:55.557Z,97375.66
2023-11-13T17:11:57.332Z,97350.69
2023-11-13T17:12:59.957Z,97355.16
2023-11-13T17:14:02.988Z,97372.38
2023-11-13T17:15:09.513Z,97359.41
2023-11-13T17:16:11.701Z,97361.94
2023-11-13T17:17:16.750Z,97357.75
2023-11-13T17:18:19.889Z,97363.94
2023-11-13T17:19:22.622Z,97330.38
2023-11-13T17:20:24.843Z,97363.84
2023-11-13T17:21:31.347Z,97365.47
2023-11-13T17:22:34.618Z,97363.69
2023-11-13T17:23:36.808Z,97369.72
2023-11-13T17:24:39.609Z,97367.31
2023-11-13T17:25:41.238Z,97365.69
2023-11-13T17:26:43.853Z,97372.63
2023-11-13T17:27:45.637Z,97361.47
2023-11-13T17:28:51.350Z,97351.09
2023-11-13T17:29:57.038Z,97358.88
2023-11-13T17:31:00.671Z,97350.19
2023-11-13T17:32:05.035Z,97343.38
2023-11-13T17:33:08.524Z,97353.59
2023-11-13T17:34:10.594Z,97350.19
2023-11-13T17:35:14.323Z,97352.66
2023-11-13T17:36:16.678Z,97340.63
2023-11-13T17:37:20.072Z,97351.97
2023-11-13T17:38:24.630Z,97343.38
2023-11-13T17:39:28.492Z,97336.47
2023-11-13T17:40:30.909Z,97345.16
2023-11-13T17:41:34.451Z,97348.69
2023-11-13T17:42:37.341Z,97351.25
2023-11-13T17:43:40.740Z,97351.19
2023-11-13T17:44:43.321Z,97355.59
2023-11-13T17:45:47.717Z,97359.88
2023-11-13T17:46:50.270Z,97374.53
2023-11-13T17:47:54.298Z,97362.50
2023-11-13T17:48:57.268Z,97363.50
2023-11-13T17:50:00.839Z,97371.31
2023-11-13T17:51:04.401Z,97366.16
2023-11-13T17:52:08.116Z,97363.56
2023-11-13T17:53:11.070Z,97366.25
2023-11-13T17:54:16.728Z,97371.56
2023-11-13T17:55:19.146Z,97371.56
2023-11-13T17:56:22.419Z,97371.56
2023-11-13T17:57:25.064Z,97378.50
2023-11-13T17:58:28.842Z,97376.88
2023-11-13T17:59:31.634Z,97377.75
2023-11-13T18:00:35.185Z,97376.88
2023-11-13T18:01:39.257Z,97373.38
2023-11-13T18:02:46.007Z,97382.03
2023-11-13T18:03:49.196Z,97376.88
2023-11-13T18:04:52.398Z,97373.44
2023-11-13T18:05:54.997Z,97375.25
2023-11-13T18:06:58.492Z,97395.94
2023-11-13T18:08:01.021Z,97386.34
2023-11-13T18:09:04.859Z,97410.47
2023-11-13T18:10:11.135Z,97401.06
2023-11-13T18:11:16.224Z,97405.31
2023-11-13T18:12:18.742Z,97407.09
2023-11-13T18:13:22.084Z,97407.09
2023-11-13T18:14:24.690Z,97415.72
2023-11-13T18:15:28.128Z,97417.44
2023-11-13T18:16:31.029Z,97419.94
2023-11-13T18:17:34.584Z,97408.81
2023-11-13T18:18:38.221Z,97407.09
2023-11-13T18:19:41.746Z,97400.16
2023-11-13T18:20:45.929Z,97407.91
2023-11-13T18:21:50.060Z,97406.22
2023-11-13T18:22:52.704Z,97412.25
2023-11-13T18:23:56.185Z,97415.66
2023-11-13T18:24:58.978Z,97409.72
2023-11-13T18:26:03.511Z,97413.22
2023-11-13T18:27:06.505Z,97413.38
2023-11-13T18:28:11.764Z,97416.75
2023-11-13T18:29:16.560Z,97421.94
2023-11-13T18:30:18.972Z,97418.53
2023-11-13T18:31:22.652Z,97409.00
2023-11-13T18:32:25.164Z,97413.38
2023-11-13T18:33:30.824Z,97409.94
2023-11-13T18:34:34.598Z,97408.31
2023-11-13T18:35:36.767Z,97407.28
2023-11-13T18:36:40.001Z,97420.28
2023-11-13T18:37:43.060Z,97418.75
2023-11-13T18:38:46.276Z,97420.53
2023-11-13T18:39:48.797Z,97425.78
2023-11-13T18:40:52.243Z,97441.41
2023-11-13T18:41:56.432Z,97431.91
2023-11-13T18:42:59.941Z,97447.41
2023-11-13T18:44:02.219Z,97472.41
2023-11-13T18:45:06.455Z,97477.56
2023-11-13T18:46:09.164Z,97487.81
2023-11-13T18:47:12.821Z,97486.88
2023-11-13T18:48:15.178Z,97495.50
2023-11-13T18:49:20.201Z,97516.13
2023-11-13T18:50:23.174Z,97519.69
2023-11-13T18:51:25.570Z,97517.06
2023-11-13T18:52:29.403Z,97518.81
2023-11-13T18:53:31.789Z,97511.94
2023-11-13T18:54:35.625Z,97506.84
2023-11-13T18:55:38.589Z,97512.00
2023-11-13T18:56:42.085Z,97514.53
2023-11-13T18:57:45.750Z,97529.16
2023-11-13T18:58:49.475Z,97534.91
2023-11-13T18:59:52.182Z,97521.75
2023-11-13T19:00:55.691Z,97518.34
2023-11-13T19:01:58.189Z,97526.78
2023-11-13T19:03:02.145Z,97520.38
2023-11-13T19:04:05.252Z,97527.94
2023-11-13T19:05:10.211Z,97533.59
2023-11-13T19:06:13.908Z,97536.00
2023-11-13T19:07:17.860Z,97536.69
2023-11-13T19:08:21.048Z,97551.13
2023-11-13T19:09:24.529Z,97543.25
2023-11-13T19:10:27.991Z,97556.78
2023-11-13T19:11:31.489Z,97571.13
2023-11-13T19:12:35.093Z,97586.38
2023-11-13T19:13:41.681Z,97599.84
2023-11-13T19:14:44.349Z,97603.09
2023-11-13T19:15:48.277Z,97602.25
2023-11-13T19:16:51.626Z,97589.34
2023-11-13T19:17:56.379Z,97594.59
2023-11-13T19:18:58.873Z,97601.59
2023-11-13T19:20:02.408Z,97598.72
2023-11-13T19:21:08.124Z,97610.34
2023-11-13T19:22:11.498Z,97613.66
2023-11-13T19:23:15.285Z,97618.66
2023-11-13T19:24:18.109Z,97626.34
2023-11-13T19:25:21.569Z,97616.03
2023-11-13T19:26:24.638Z,97603.78
2023-11-13T19:27:28.351Z,97603.50
2023-11-13T19:28:32.646Z,97595.44
2023-11-13T19:29:38.812Z,97596.03
2023-11-13T19:30:41.221Z,97608.72
2023-11-13T19:31:44.843Z,97602.69
2023-11-13T19:32:55.461Z,97602.84
2023-11-13T19:34:04.383Z,97577.66
2023-11-13T19:35:07.681Z,97582.59
2023-11-13T19:36:11.709Z,97588.31
2023-11-13T19:37:14.328Z,97590.06
2023-11-13T19:38:18.235Z,97596.88
2023-11-13T19:39:20.954Z,97598.28
2023-11-13T19:40:24.869Z,97606.56
2023-11-13T19:41:29.013Z,97597.06
2023-11-13T19:42:31.588Z,97608.34
2023-11-13T19:43:35.965Z,97612.75
2023-11-13T19:44:47.936Z,97613.63
2023-11-13T19:45:56.689Z,97618.91
2023-11-13T19:46:59.291Z,97618.78
2023-11-13T19:48:04.056Z,97629.91
2023-11-13T19:49:06.666Z,97644.25
2023-11-13T19:50:10.838Z,97651.78
2023-11-13T19:51:13.517Z,97646.72
2023-11-13T19:52:16.945Z,97646.63
2023-11-13T19:53:21.174Z,97642.38
2023-11-13T19:54:25.380Z,97643.34
2023-11-13T19:55:28.760Z,97633.81
2023-11-13T19:56:31.298Z,97626.91
2023-11-13T19:57:34.666Z,97623.50
2023-11-13T19:58:38.104Z,97625.28
2023-11-13T19:59:45.100Z,97616.59
2023-11-13T20:00:48.009Z,97618.50
2023-11-13T20:01:51.784Z,97604.81
2023-11-13T20:02:57.669Z,97603.03
2023-11-13T20:04:01.542Z,97599.97
2023-11-13T20:05:05.560Z,97619.72
2023-11-13T20:06:08.430Z,97614.34
2023-11-13T20:07:12.929Z,97616.00
2023-11-13T20:08:16.235Z,97612.66
2023-11-13T20:09:20.421Z,97610.94
2023-11-13T20:10:23.449Z,97621.25
2023-11-13T20:11:27.461Z,97637.44
2023-11-13T20:12:30.286Z,97640.59
2023-11-13T20:13:34.300Z,97646.50
2023-11-13T20:14:37.613Z,97641.19
2023-11-13T20:15:42.679Z,97637.66
2023-11-13T20:16:45.682Z,97642.91
2023-11-13T20:17:48.592Z,97641.19
2023-11-13T20:18:52.549Z,97652.34
2023-11-13T20:19:55.808Z,97640.25
2023-11-13T20:20:59.595Z,97642.81
2023-11-13T20:22:02.485Z,97653.13
2023-11-13T20:23:06.493Z,97657.19
2023-11-13T20:24:12.416Z,97654.47
2023-11-13T20:25:16.308Z,97661.06
2023-11-13T20:26:18.979Z,97664.31
2023-11-13T20:27:23.512Z,97662.31
2023-11-13T20:28:26.991Z,97663.69
2023-11-13T20:29:30.633Z,97657.53
2023-11-13T20:30:33.312Z,97662.28
2023-11-13T20:31:38.755Z,97670.34